Time;durP1;ratioP1;P1;durP2;ratioP2;P2;SDS_P1;SDS_P2;PMS_P1;PMS_P2;Temp;Humidity;BMP_temperature;BMP_pressure;BME280_temperature;BME280_humidity;BME280_pressure;Samples;Min_cycle;Max_cycle;Signal;HPM_P1;HPM_P2
2024/03/14 00:01:21;;;;;;;;;;;;;;;6.19;100.00;94412.44;10341249;28;20508;-77
2024/03/14 00:06:22;;;;;;;;;;;;;;;6.15;100.00;94414.00;10323887;28;20362;-77
2024/03/14 00:11:22;;;;;;;;;;;;;;;6.07;100.00;94411.78;10341523;28;19923;-77
2024/03/14 00:16:22;;;;;;;;;;;;;;;5.99;100.00;94405.88;10340923;28;20320;-77
2024/03/14 00:21:23;;;;;;;;;;;;;;;6.11;100.00;94405.72;10341548;28;19920;-77
2024/03/14 00:26:23;;;;;;;;;;;;;;;6.09;100.00;94399.81;10348429;28;19913;-77
2024/03/14 00:31:24;;;;;;;;;;;;;;;6.23;100.00;94396.75;10347773;28;19929;-77
2024/03/14 00:36:25;;;;;;;;;;;;;;;6.39;100.00;94387.81;10346800;28;19921;-77
2024/03/14 00:41:25;;;;;;;;;;;;;;;6.53;100.00;94382.03;10330683;28;19914;-77
2024/03/14 00:46:26;;;;;;;;;;;;;;;6.56;100.00;94382.31;10329748;28;19960;-76
2024/03/14 00:51:26;;;;;;;;;;;;;;;6.56;100.00;94368.97;10328765;28;20349;-76
2024/03/14 00:56:26;;;;;;;;;;;;;;;6.74;100.00;94374.94;10328526;28;19972;-78
2024/03/14 01:01:27;;;;;;;;;;;;;;;6.66;100.00;94365.56;10347209;28;20347;-76
2024/03/14 01:06:27;;;;;;;;;;;;;;;6.56;100.00;94374.31;10347534;28;20350;-77
2024/03/14 01:11:27;;;;;;;;;;;;;;;6.75;100.00;94360.53;10346072;28;19921;-77
2024/03/14 01:16:28;;;;;;;;;;;;;;;6.91;100.00;94372.13;10328597;28;20407;-78
2024/03/14 01:21:28;;;;;;;;;;;;;;;6.91;100.00;94348.88;10345899;28;20027;-79
2024/03/14 01:26:28;;;;;;;;;;;;;;;6.84;100.00;94356.31;10345991;28;20003;-77
2024/03/14 01:31:28;;;;;;;;;;;;;;;6.73;100.00;94355.47;10346763;28;19920;-76
2024/03/14 01:36:29;;;;;;;;;;;;;;;6.86;100.00;94359.53;10326994;28;19921;-77
2024/03/14 01:41:30;;;;;;;;;;;;;;;6.95;100.00;94360.66;10312220;28;19932;-76
2024/03/14 01:46:31;;;;;;;;;;;;;;;6.95;100.00;94352.66;10345455;28;19914;-77
2024/03/14 01:51:31;;;;;;;;;;;;;;;7.07;100.00;94348.94;10344481;28;19918;-77
2024/03/14 01:56:31;;;;;;;;;;;;;;;7.16;100.00;94342.84;10344397;28;19917;-82
2024/03/14 02:01:31;;;;;;;;;;;;;;;7.18;100.00;94339.91;10318026;28;19916;-76
2024/03/14 02:06:36;;;;;;;;;;;;;;;7.22;100.00;94337.53;10304264;28;20726;-76
2024/03/14 02:11:36;;;;;;;;;;;;;;;7.15;100.00;94335.09;10304245;28;19971;-78
2024/03/14 02:16:36;;;;;;;;;;;;;;;7.07;100.00;94335.59;10286061;28;20337;-76
2024/03/14 02:21:36;;;;;;;;;;;;;;;7.22;100.00;94334.84;10302987;28;19957;-77
2024/03/14 02:26:40;;;;;;;;;;;;;;;7.26;100.00;94325.25;10302889;28;19914;-76
2024/03/14 02:31:40;;;;;;;;;;;;;;;7.28;100.00;94331.13;10302710;28;19936;-76
2024/03/14 02:36:41;;;;;;;;;;;;;;;7.33;100.00;94323.94;10301716;28;19918;-77
2024/03/14 02:41:41;;;;;;;;;;;;;;;7.29;100.00;94336.22;10301944;28;20376;-77
2024/03/14 02:46:42;;;;;;;;;;;;;;;7.34;100.00;94324.75;10301904;28;20295;-78
2024/03/14 02:51:45;;;;;;;;;;;;;;;7.43;100.00;94330.38;10283700;28;20033;-77
2024/03/14 02:56:47;;;;;;;;;;;;;;;7.50;100.00;94336.28;10284458;28;19917;-77
2024/03/14 03:01:47;;;;;;;;;;;;;;;7.59;100.00;94340.06;10302885;28;19910;-76
2024/03/14 03:06:58;;;;;;;;;;;;;;;7.53;100.00;94341.09;10301648;28;20361;-77
2024/03/14 03:11:58;;;;;;;;;;;;;;;7.52;100.00;94339.47;10301436;28;20472;-77
2024/03/14 03:16:58;;;;;;;;;;;;;;;7.53;100.00;94330.41;10300496;28;19914;-77
2024/03/14 03:21:59;;;;;;;;;;;;;;;7.50;100.00;94342.41;10300935;28;19913;-78
2024/03/14 03:27:03;;;;;;;;;;;;;;;7.57;100.00;94341.38;10300329;28;20399;-78
2024/03/14 03:32:03;;;;;;;;;;;;;;;7.47;100.00;94342.94;10300660;28;20339;-78
2024/03/14 03:37:05;;;;;;;;;;;;;;;7.53;100.00;94346.44;10298816;28;19926;-77
2024/03/14 03:42:07;;;;;;;;;;;;;;;7.49;100.00;94340.84;10301435;28;20321;-77
2024/03/14 03:47:08;;;;;;;;;;;;;;;7.52;100.00;94356.34;10298516;28;20048;-77
2024/03/14 03:52:08;;;;;;;;;;;;;;;7.49;100.00;94353.38;10300680;28;20395;-76
2024/03/14 03:57:08;;;;;;;;;;;;;;;7.41;100.00;94357.38;10303432;28;19918;-79
2024/03/14 04:02:10;;;;;;;;;;;;;;;7.34;100.00;94352.28;10308360;28;19910;-77
2024/03/14 04:07:14;;;;;;;;;;;;;;;7.24;100.00;94360.25;10307893;28;19913;-79
2024/03/14 04:12:14;;;;;;;;;;;;;;;7.28;100.00;94358.66;10307921;28;19913;-77
2024/03/14 04:17:15;;;;;;;;;;;;;;;7.27;100.00;94356.25;10306103;28;19909;-80
2024/03/14 04:22:15;;;;;;;;;;;;;;;7.23;100.00;94363.19;10308751;28;20972;-78
2024/03/14 04:27:15;;;;;;;;;;;;;;;7.24;100.00;94362.94;10308152;28;20284;-77
2024/03/14 04:32:17;;;;;;;;;;;;;;;7.34;100.00;94356.81;10306842;28;20369;-76
2024/03/14 04:37:17;;;;;;;;;;;;;;;7.32;100.00;94358.94;10310524;28;20328;-76
2024/03/14 04:42:17;;;;;;;;;;;;;;;7.27;100.00;94359.75;10309856;28;19944;-77
2024/03/14 04:47:18;;;;;;;;;;;;;;;7.07;100.00;94359.63;10308346;28;19977;-77
2024/03/14 04:52:18;;;;;;;;;;;;;;;7.19;100.00;94368.25;10307599;28;19913;-77
2024/03/14 04:57:19;;;;;;;;;;;;;;;7.21;100.00;94374.13;10307590;28;20304;-77
2024/03/14 05:02:19;;;;;;;;;;;;;;;7.32;100.00;94378.44;10306376;28;19956;-77
2024/03/14 05:07:20;;;;;;;;;;;;;;;7.42;100.00;94379.56;10305802;28;20342;-77
2024/03/14 05:12:20;;;;;;;;;;;;;;;7.23;100.00;94374.69;10305950;28;19957;-78
2024/03/14 05:17:20;;;;;;;;;;;;;;;7.01;100.00;94394.34;10306161;28;19910;-78
2024/03/14 05:22:21;;;;;;;;;;;;;;;6.99;100.00;94391.13;10308653;28;19910;-77
2024/03/14 05:27:22;;;;;;;;;;;;;;;6.80;100.00;94401.44;10290777;28;20284;-81
2024/03/14 05:32:23;;;;;;;;;;;;;;;6.83;100.00;94400.13;10275521;28;19913;-82
2024/03/14 05:37:26;;;;;;;;;;;;;;;6.84;100.00;94391.06;10316208;28;20344;-90
2024/03/14 05:42:26;;;;;;;;;;;;;;;6.74;100.00;94410.47;10300487;28;20404;-86
2024/03/14 05:47:27;;;;;;;;;;;;;;;6.75;100.00;94411.28;10288332;28;20001;-91
2024/03/14 05:52:30;;;;;;;;;;;;;;;6.66;100.00;94417.09;10280074;28;19913;-76
2024/03/14 05:57:30;;;;;;;;;;;;;;;6.71;100.00;94419.00;10292878;28;20303;-76
2024/03/14 06:02:30;;;;;;;;;;;;;;;6.82;100.00;94422.53;10263069;28;19917;-76
2024/03/14 06:07:31;;;;;;;;;;;;;;;6.77;100.00;94417.97;10272851;28;19910;-77
2024/03/14 06:12:31;;;;;;;;;;;;;;;6.95;100.00;94424.78;10263614;28;20381;-76
2024/03/14 06:17:31;;;;;;;;;;;;;;;7.15;100.00;94425.97;10294596;28;19917;-76
2024/03/14 06:22:34;;;;;;;;;;;;;;;7.29;100.00;94427.09;10291980;28;20376;-76
2024/03/14 06:27:34;;;;;;;;;;;;;;;7.26;100.00;94427.63;10292731;28;19975;-79
2024/03/14 06:32:36;;;;;;;;;;;;;;;7.51;100.00;94434.16;10291349;28;19920;-78
2024/03/14 06:37:36;;;;;;;;;;;;;;;7.64;100.00;94436.34;10290215;28;19922;-78
2024/03/14 06:42:37;;;;;;;;;;;;;;;7.63;100.00;94444.63;10267954;28;20356;-77
2024/03/14 06:47:38;;;;;;;;;;;;;;;7.28;100.00;94446.06;10291850;28;19909;-77
2024/03/14 06:52:39;;;;;;;;;;;;;;;7.47;100.00;94455.25;10291568;28;19921;-78
2024/03/14 06:57:40;;;;;;;;;;;;;;;7.76;100.00;94470.06;10291170;28;20320;-78
2024/03/14 07:02:40;;;;;;;;;;;;;;;7.94;100.00;94456.25;10290300;28;20392;-77
2024/03/14 07:07:42;;;;;;;;;;;;;;;7.96;100.00;94461.34;10290238;28;20474;-77
2024/03/14 07:12:42;;;;;;;;;;;;;;;8.02;100.00;94468.28;10290859;28;20359;-77
2024/03/14 07:17:43;;;;;;;;;;;;;;;8.26;100.00;94484.69;10272824;28;19964;-79
2024/03/14 07:22:45;;;;;;;;;;;;;;;8.45;100.00;94474.31;10289955;28;19957;-78
2024/03/14 07:27:46;;;;;;;;;;;;;;;8.74;100.00;94478.38;10293240;28;19917;-79
2024/03/14 07:32:46;;;;;;;;;;;;;;;8.84;100.00;94476.47;10271839;28;20376;-76
2024/03/14 07:37:50;;;;;;;;;;;;;;;9.10;100.00;94476.47;10268774;28;19918;-82
2024/03/14 07:42:50;;;;;;;;;;;;;;;9.17;100.00;94478.88;10292192;28;19957;-82
2024/03/14 07:47:52;;;;;;;;;;;;;;;9.32;100.00;94481.53;10290992;28;19937;-81
2024/03/14 07:52:54;;;;;;;;;;;;;;;9.57;100.00;94471.81;10290166;28;19921;-82
2024/03/14 07:57:54;;;;;;;;;;;;;;;9.49;100.00;94475.84;10265410;28;19917;-80
2024/03/14 08:02:54;;;;;;;;;;;;;;;9.67;100.00;94476.31;10290447;28;20388;-83
2024/03/14 08:07:54;;;;;;;;;;;;;;;9.70;100.00;94481.97;10291143;28;19933;-78
2024/03/14 08:12:58;;;;;;;;;;;;;;;9.96;100.00;94481.84;10290860;28;19933;-82
2024/03/14 08:17:59;;;;;;;;;;;;;;;9.93;100.00;94482.41;10290342;28;20419;-79
2024/03/14 08:22:59;;;;;;;;;;;;;;;9.80;100.00;94475.75;10290173;28;19941;-78
2024/03/14 08:28:01;;;;;;;;;;;;;;;10.19;100.00;94479.63;10289996;28;20380;-79
2024/03/14 08:33:03;;;;;;;;;;;;;;;10.54;100.00;94475.16;10271054;28;20006;-82
2024/03/14 08:38:04;;;;;;;;;;;;;;;10.78;100.00;94472.53;10274356;28;19925;-83
2024/03/14 08:43:05;;;;;;;;;;;;;;;10.89;100.00;94476.75;10284461;28;19918;-83
2024/03/14 08:48:07;;;;;;;;;;;;;;;11.27;100.00;94478.84;10280431;28;19913;-83
2024/03/14 08:53:12;;;;;;;;;;;;;;;11.80;100.00;94472.66;10301716;28;20299;-83
2024/03/14 08:58:12;;;;;;;;;;;;;;;11.88;100.00;94463.94;10290027;28;20424;-82
2024/03/14 09:03:15;;;;;;;;;;;;;;;11.87;100.00;94475.00;10296468;28;19909;-83
2024/03/14 09:08:24;;;;;;;;;;;;;;;12.02;100.00;94476.75;10298176;28;19972;-84
2024/03/14 09:13:25;;;;;;;;;;;;;;;11.77;100.00;94470.53;10298130;28;19910;-83
2024/03/14 09:18:25;;;;;;;;;;;;;;;10.86;100.00;94485.38;10279601;28;19920;-82
2024/03/14 09:23:27;;;;;;;;;;;;;;;11.44;100.00;94483.78;10285634;28;20062;-83
2024/03/14 09:28:27;;;;;;;;;;;;;;;11.76;100.00;94485.09;10296842;28;20380;-83
2024/03/14 09:33:28;;;;;;;;;;;;;;;12.32;100.00;94483.63;10296392;28;19909;-85
2024/03/14 09:38:28;;;;;;;;;;;;;;;12.82;100.00;94475.09;10296351;28;20420;-84
2024/03/14 09:43:28;;;;;;;;;;;;;;;12.27;100.00;94473.72;10278342;28;19917;-83
2024/03/14 09:48:30;;;;;;;;;;;;;;;11.76;100.00;94483.22;10281263;28;19941;-84
2024/03/14 09:53:31;;;;;;;;;;;;;;;11.41;100.00;94501.34;10295228;28;19914;-82
2024/03/14 09:58:31;;;;;;;;;;;;;;;10.53;100.00;94503.09;10278284;28;20285;-84
2024/03/14 10:03:33;;;;;;;;;;;;;;;9.80;100.00;94520.59;10278109;28;19914;-82
2024/03/14 10:08:43;;;;;;;;;;;;;;;9.37;100.00;94520.94;10263195;28;19920;-83
2024/03/14 10:13:47;;;;;;;;;;;;;;;9.09;100.00;94525.00;10293574;28;19910;-83
2024/03/14 10:18:47;;;;;;;;;;;;;;;9.37;100.00;94532.47;10295618;28;19918;-82
2024/03/14 10:23:49;;;;;;;;;;;;;;;9.58;100.00;94529.75;10277809;28;20411;-83
2024/03/14 10:28:49;;;;;;;;;;;;;;;9.74;100.00;94535.91;10295232;28;19975;-83
2024/03/14 10:33:50;;;;;;;;;;;;;;;9.77;100.00;94540.72;10276737;28;19910;-84
2024/03/14 10:38:51;;;;;;;;;;;;;;;9.60;100.00;94540.22;10293991;28;20181;-83
2024/03/14 10:43:58;;;;;;;;;;;;;;;9.24;100.00;94546.44;10277207;28;20408;-82
2024/03/14 10:48:59;;;;;;;;;;;;;;;9.09;100.00;94549.13;10295370;28;19979;-83
2024/03/14 10:54:00;;;;;;;;;;;;;;;9.46;100.00;94556.06;10293732;28;20532;-82
2024/03/14 10:59:02;;;;;;;;;;;;;;;9.60;100.00;94567.88;10295528;28;20326;-83
2024/03/14 11:04:02;;;;;;;;;;;;;;;9.66;100.00;94571.34;10293318;28;20365;-82
2024/03/14 11:09:08;;;;;;;;;;;;;;;9.41;100.00;94570.28;10292931;28;20316;-82
2024/03/14 11:14:11;;;;;;;;;;;;;;;9.22;100.00;94586.09;10292071;28;19972;-83
2024/03/14 11:19:17;;;;;;;;;;;;;;;8.96;100.00;94578.06;10291214;28;20005;-83
2024/03/14 11:24:19;;;;;;;;;;;;;;;8.92;100.00;94571.63;10292782;28;20467;-83
2024/03/14 11:29:20;;;;;;;;;;;;;;;8.62;100.00;94578.53;10293789;28;19949;-82
2024/03/14 11:34:21;;;;;;;;;;;;;;;8.58;100.00;94585.47;10273751;28;19914;-83
2024/03/14 11:39:25;;;;;;;;;;;;;;;8.45;100.00;94586.00;10292374;28;20384;-83
2024/03/14 11:44:30;;;;;;;;;;;;;;;8.26;100.00;94591.78;10291687;28;20000;-82
2024/03/14 11:49:31;;;;;;;;;;;;;;;8.62;100.00;94589.25;10291328;28;20316;-82
2024/03/14 11:54:31;;;;;;;;;;;;;;;8.63;100.00;94598.09;10274681;28;19979;-83
2024/03/14 11:59:32;;;;;;;;;;;;;;;8.53;100.00;94598.88;10293274;28;19918;-83
2024/03/14 12:04:32;;;;;;;;;;;;;;;8.34;100.00;94610.03;10290650;28;19914;-82
2024/03/14 12:09:33;;;;;;;;;;;;;;;8.20;100.00;94614.25;10291201;28;19917;-82
2024/03/14 12:14:33;;;;;;;;;;;;;;;8.22;100.00;94614.81;10291176;28;20356;-80
2024/03/14 12:19:33;;;;;;;;;;;;;;;8.30;100.00;94618.84;10290007;28;19914;-82
2024/03/14 12:24:34;;;;;;;;;;;;;;;8.29;100.00;94614.53;10282354;28;20360;-82
2024/03/14 12:29:34;;;;;;;;;;;;;;;7.76;100.00;94614.53;10300097;28;19914;-81
2024/03/14 12:34:35;;;;;;;;;;;;;;;7.89;100.00;94614.09;10297559;28;20291;-82
2024/03/14 12:39:35;;;;;;;;;;;;;;;7.96;100.00;94622.69;10281575;28;19921;-83
2024/03/14 12:44:36;;;;;;;;;;;;;;;8.01;100.00;94620.03;10280774;28;19914;-82
2024/03/14 12:49:37;;;;;;;;;;;;;;;8.14;100.00;94628.69;10280028;28;19929;-77
2024/03/14 12:54:38;;;;;;;;;;;;;;;8.18;100.00;94619.06;10296970;28;19924;-78
2024/03/14 12:59:38;;;;;;;;;;;;;;;8.15;100.00;94622.25;10308586;28;20265;-80
2024/03/14 13:04:38;;;;;;;;;;;;;;;8.33;100.00;94631.69;10295439;28;19945;-80
2024/03/14 13:09:39;;;;;;;;;;;;;;;8.33;100.00;94624.50;10296158;28;19914;-78
2024/03/14 13:14:39;;;;;;;;;;;;;;;8.29;100.00;94620.72;10295961;28;19910;-78
2024/03/14 13:19:40;;;;;;;;;;;;;;;8.50;100.00;94620.84;10295742;28;19909;-78
2024/03/14 13:24:40;;;;;;;;;;;;;;;8.19;100.00;94631.34;10295463;28;19964;-79
2024/03/14 13:29:41;;;;;;;;;;;;;;;8.01;100.00;94636.09;10295366;28;20402;-77
2024/03/14 13:34:43;;;;;;;;;;;;;;;8.04;100.00;94637.47;10294188;28;19955;-77
2024/03/14 13:39:43;;;;;;;;;;;;;;;8.15;100.00;94641.81;10294791;28;19957;-76
2024/03/14 13:44:46;;;;;;;;;;;;;;;8.11;100.00;94638.03;10295587;28;20359;-79
2024/03/14 13:49:47;;;;;;;;;;;;;;;8.09;100.00;94644.72;10295920;28;20324;-79
2024/03/14 13:54:47;;;;;;;;;;;;;;;8.06;100.00;94650.59;10294799;28;20335;-81
2024/03/14 13:59:47;;;;;;;;;;;;;;;8.19;100.00;94647.41;10294635;28;19910;-79
2024/03/14 14:04:48;;;;;;;;;;;;;;;8.17;100.00;94650.38;10293047;28;20337;-79
2024/03/14 14:09:51;;;;;;;;;;;;;;;8.27;100.00;94657.63;10293861;28;19914;-79
2024/03/14 14:14:52;;;;;;;;;;;;;;;8.06;100.00;94661.28;10292413;28;19909;-79
2024/03/14 14:19:54;;;;;;;;;;;;;;;8.16;100.00;94659.47;10293644;28;20001;-77
2024/03/14 14:24:55;;;;;;;;;;;;;;;8.23;100.00;94655.75;10292575;28;19941;-78
2024/03/14 14:29:55;;;;;;;;;;;;;;;8.29;100.00;94668.91;10292968;28;19913;-79
2024/03/14 14:34:56;;;;;;;;;;;;;;;7.93;100.00;94658.00;10292133;28;21931;-78
2024/03/14 14:39:56;;;;;;;;;;;;;;;7.96;100.00;94662.03;10292448;28;20309;-81
2024/03/14 14:44:56;;;;;;;;;;;;;;;7.37;100.00;94669.09;10292844;28;20388;-81
2024/03/14 14:49:56;;;;;;;;;;;;;;;7.47;100.00;94669.16;10293059;28;19944;-81
2024/03/14 14:54:59;;;;;;;;;;;;;;;7.68;100.00;94680.81;10289863;28;19921;-76
2024/03/14 15:00:00;;;;;;;;;;;;;;;7.68;100.00;94672.81;10291384;28;19916;-73
2024/03/14 15:05:00;;;;;;;;;;;;;;;7.89;100.00;94669.47;10290524;28;20345;-79
2024/03/14 15:10:01;;;;;;;;;;;;;;;7.88;100.00;94684.72;10293479;28;19945;-84
2024/03/14 15:15:02;;;;;;;;;;;;;;;7.97;100.00;94682.38;10276026;28;19919;-79
2024/03/14 15:20:05;;;;;;;;;;;;;;;7.29;100.00;94680.25;10290954;28;20363;-80
2024/03/14 15:25:05;;;;;;;;;;;;;;;7.45;100.00;94690.03;10291236;28;20277;-78
2024/03/14 15:30:09;;;;;;;;;;;;;;;7.48;100.00;94686.00;10291808;28;19914;-79
2024/03/14 15:35:11;;;;;;;;;;;;;;;7.55;100.00;94693.81;10288782;28;20008;-79
2024/03/14 15:40:13;;;;;;;;;;;;;;;7.52;100.00;94700.47;10290947;28;19997;-78
2024/03/14 15:45:17;;;;;;;;;;;;;;;7.58;100.00;94693.34;10304871;28;20474;-79
2024/03/14 15:50:21;;;;;;;;;;;;;;;7.44;100.00;94698.31;10291919;28;20028;-79
2024/03/14 15:55:22;;;;;;;;;;;;;;;7.58;100.00;94698.69;10297200;28;19971;-79
2024/03/14 16:00:26;;;;;;;;;;;;;;;7.17;100.00;94709.78;10298342;28;19960;-79
2024/03/14 16:05:28;;;;;;;;;;;;;;;7.13;100.00;94714.03;10298849;28;19910;-79
2024/03/14 16:10:30;;;;;;;;;;;;;;;7.23;100.00;94711.47;10298199;28;20332;-80
2024/03/14 16:15:31;;;;;;;;;;;;;;;7.34;100.00;94715.84;10299203;28;19914;-79
2024/03/14 16:20:31;;;;;;;;;;;;;;;7.32;100.00;94725.97;10298942;28;19910;-80
2024/03/14 16:25:34;;;;;;;;;;;;;;;7.30;100.00;94733.44;10297886;28;19949;-78
2024/03/14 16:30:34;;;;;;;;;;;;;;;7.25;100.00;94736.06;10297953;28;20324;-80
2024/03/14 16:35:35;;;;;;;;;;;;;;;7.25;100.00;94732.59;10297197;28;19928;-80
2024/03/14 16:40:36;;;;;;;;;;;;;;;6.99;100.00;94733.13;10289019;28;19917;-78
2024/03/14 16:45:36;;;;;;;;;;;;;;;6.90;100.00;94744.50;10297186;28;19909;-80
2024/03/14 16:50:36;;;;;;;;;;;;;;;7.01;100.00;94749.72;10297758;28;19917;-78
2024/03/14 16:55:37;;;;;;;;;;;;;;;7.10;100.00;94741.25;10296484;28;20343;-79
2024/03/14 17:00:37;;;;;;;;;;;;;;;7.25;100.00;94754.78;10278833;28;19909;-80
2024/03/14 17:05:38;;;;;;;;;;;;;;;7.19;100.00;94764.59;10278080;28;19949;-79
2024/03/14 17:10:38;;;;;;;;;;;;;;;7.30;100.00;94770.09;10296028;28;19925;-77
2024/03/14 17:15:40;;;;;;;;;;;;;;;7.30;100.00;94772.75;10278418;28;19913;-80
2024/03/14 17:20:40;;;;;;;;;;;;;;;7.33;100.00;94774.91;10285501;28;19917;-79
2024/03/14 17:25:40;;;;;;;;;;;;;;;7.44;100.00;94778.50;10277947;28;19917;-79
2024/03/14 17:30:40;;;;;;;;;;;;;;;7.26;100.00;94783.13;10278170;28;20392;-79
2024/03/14 17:35:41;;;;;;;;;;;;;;;7.26;100.00;94780.47;10296775;28;19928;-78
2024/03/14 17:40:41;;;;;;;;;;;;;;;7.39;100.00;94784.59;10279850;28;19917;-82
2024/03/14 17:45:42;;;;;;;;;;;;;;;7.25;100.00;94794.88;10303052;28;19913;-79
2024/03/14 17:50:43;;;;;;;;;;;;;;;7.16;100.00;94794.53;10303396;28;19964;-79
2024/03/14 17:55:43;;;;;;;;;;;;;;;7.34;100.00;94787.25;10291054;28;20408;-80
2024/03/14 18:00:43;;;;;;;;;;;;;;;7.22;100.00;94792.72;10286287;28;19929;-80
2024/03/14 18:05:44;;;;;;;;;;;;;;;7.31;100.00;94799.25;10285490;28;19909;-81
2024/03/14 18:10:49;;;;;;;;;;;;;;;7.41;100.00;94798.53;10295240;28;19913;-81
2024/03/14 18:15:49;;;;;;;;;;;;;;;7.42;100.00;94810.03;10291638;28;19981;-80
2024/03/14 18:20:55;;;;;;;;;;;;;;;7.48;100.00;94811.69;10303833;28;19909;-80
2024/03/14 18:25:56;;;;;;;;;;;;;;;7.47;100.00;94807.41;10285487;28;19958;-80
2024/03/14 18:30:56;;;;;;;;;;;;;;;7.56;100.00;94807.78;10301790;28;20006;-80
2024/03/14 18:35:57;;;;;;;;;;;;;;;7.29;100.00;94811.22;10283001;28;20363;-80
2024/03/14 18:40:58;;;;;;;;;;;;;;;7.14;100.00;94820.66;10299878;28;20415;-79
2024/03/14 18:45:58;;;;;;;;;;;;;;;7.13;100.00;94820.94;10296190;28;19960;-77
2024/03/14 18:50:59;;;;;;;;;;;;;;;7.15;100.00;94818.81;10272600;28;19949;-81
2024/03/14 18:56:00;;;;;;;;;;;;;;;7.27;100.00;94819.50;10276841;28;19909;-74
2024/03/14 19:01:06;;;;;;;;;;;;;;;7.31;100.00;94815.28;10298461;28;20304;-82
2024/03/14 19:06:07;;;;;;;;;;;;;;;7.40;100.00;94818.31;10280428;28;20714;-80
2024/03/14 19:11:07;;;;;;;;;;;;;;;7.46;100.00;94817.28;10292460;28;19929;-75
2024/03/14 19:16:10;;;;;;;;;;;;;;;7.15;100.00;94819.63;10291769;28;19910;-75
2024/03/14 19:21:12;;;;;;;;;;;;;;;7.22;100.00;94818.63;10275473;28;20403;-78
2024/03/14 19:26:16;;;;;;;;;;;;;;;7.10;100.00;94818.75;10279513;28;20257;-79
2024/03/14 19:31:16;;;;;;;;;;;;;;;7.04;100.00;94814.41;10296445;28;19995;-79
2024/03/14 19:36:17;;;;;;;;;;;;;;;6.93;100.00;94824.97;10297469;28;19917;-78
2024/03/14 19:41:17;;;;;;;;;;;;;;;6.84;100.00;94819.25;10297950;28;20316;-79
2024/03/14 19:46:19;;;;;;;;;;;;;;;6.95;100.00;94816.69;10274470;28;19910;-80
2024/03/14 19:51:21;;;;;;;;;;;;;;;6.93;100.00;94822.28;10294759;28;19914;-79
2024/03/14 19:56:23;;;;;;;;;;;;;;;7.11;100.00;94823.06;10297806;28;20359;-79
2024/03/14 20:01:23;;;;;;;;;;;;;;;7.13;100.00;94813.72;10279406;28;20316;-78
2024/03/14 20:06:24;;;;;;;;;;;;;;;7.06;100.00;94817.63;10293147;28;19981;-77
2024/03/14 20:11:24;;;;;;;;;;;;;;;7.01;100.00;94823.72;10292315;28;19965;-75
2024/03/14 20:16:24;;;;;;;;;;;;;;;7.01;100.00;94813.84;10297661;28;19910;-84
2024/03/14 20:21:37;;;;;;;;;;;;;;;6.83;100.00;94811.47;10304579;28;19909;-83
2024/03/14 20:26:40;;;;;;;;;;;;;;;6.83;100.00;94814.16;10307772;28;20351;-84
2024/03/14 20:32:17;;;;;;;;;;;;;;;6.88;100.00;94816.91;10287838;28;19920;-82
2024/03/14 20:37:18;;;;;;;;;;;;;;;7.07;100.00;94811.25;10313457;28;19921;-77
2024/03/14 20:42:19;;;;;;;;;;;;;;;7.06;100.00;94813.13;10349232;28;19917;-76
2024/03/14 20:47:19;;;;;;;;;;;;;;;6.77;100.00;94815.16;10331131;28;19919;-77
2024/03/14 20:52:20;;;;;;;;;;;;;;;6.66;100.00;94812.31;10332348;28;19920;-77
2024/03/14 20:57:22;;;;;;;;;;;;;;;6.65;100.00;94808.03;10331155;28;19913;-77
2024/03/14 21:02:24;;;;;;;;;;;;;;;6.52;100.00;94803.06;10315573;28;19921;-77
2024/03/14 21:07:24;;;;;;;;;;;;;;;6.40;100.00;94805.03;10307301;28;19909;-77
2024/03/14 21:12:27;;;;;;;;;;;;;;;6.32;100.00;94804.38;10308505;28;19914;-76
2024/03/14 21:17:27;;;;;;;;;;;;;;;6.61;100.00;94796.22;10308064;28;20023;-76
2024/03/14 21:22:27;;;;;;;;;;;;;;;6.82;100.00;94799.16;10307895;28;20004;-75
2024/03/14 21:27:28;;;;;;;;;;;;;;;6.96;100.00;94803.13;10308023;28;20320;-77
2024/03/14 21:32:28;;;;;;;;;;;;;;;6.85;100.00;94801.34;10308711;28;19913;-77
2024/03/14 21:37:29;;;;;;;;;;;;;;;6.97;100.00;94796.69;10308140;28;19921;-77
2024/03/14 21:42:29;;;;;;;;;;;;;;;7.11;100.00;94793.66;10308198;28;19917;-78
2024/03/14 21:47:31;;;;;;;;;;;;;;;7.13;100.00;94791.53;10307274;28;20348;-77
2024/03/14 21:52:31;;;;;;;;;;;;;;;7.19;100.00;94793.22;10319577;28;19914;-77
2024/03/14 21:57:31;;;;;;;;;;;;;;;7.13;100.00;94794.19;10289966;28;19909;-77
2024/03/14 22:02:32;;;;;;;;;;;;;;;7.24;100.00;94787.09;10305916;28;20009;-78
2024/03/14 22:07:33;;;;;;;;;;;;;;;7.19;100.00;94786.00;10305824;28;20288;-76
2024/03/14 22:12:34;;;;;;;;;;;;;;;7.28;100.00;94791.69;10305920;28;19996;-76
2024/03/14 22:17:34;;;;;;;;;;;;;;;7.18;100.00;94794.25;10288235;28;19920;-77
2024/03/14 22:22:35;;;;;;;;;;;;;;;7.16;100.00;94799.06;10287630;28;19952;-76
2024/03/14 22:27:35;;;;;;;;;;;;;;;7.13;100.00;94803.03;10305884;28;20384;-78
2024/03/14 22:32:36;;;;;;;;;;;;;;;7.15;100.00;94795.56;10306026;28;19918;-77
2024/03/14 22:37:37;;;;;;;;;;;;;;;7.16;100.00;94796.41;10287280;28;19922;-76
2024/03/14 22:42:39;;;;;;;;;;;;;;;7.24;100.00;94803.16;10287209;28;20367;-76
2024/03/14 22:47:39;;;;;;;;;;;;;;;7.31;100.00;94787.72;10305360;28;19921;-77
2024/03/14 22:52:40;;;;;;;;;;;;;;;7.33;100.00;94785.63;10304777;28;20285;-78
2024/03/14 22:57:40;;;;;;;;;;;;;;;7.45;100.00;94782.78;10305000;28;20008;-77
2024/03/14 23:02:41;;;;;;;;;;;;;;;7.44;100.00;94781.19;10303833;28;20272;-77
2024/03/14 23:07:41;;;;;;;;;;;;;;;7.52;100.00;94783.38;10304102;28;19918;-77
2024/03/14 23:12:41;;;;;;;;;;;;;;;7.57;100.00;94788.78;10303903;28;20325;-78
2024/03/14 23:17:41;;;;;;;;;;;;;;;7.36;100.00;94785.09;10303899;28;19913;-77
2024/03/14 23:22:43;;;;;;;;;;;;;;;7.44;100.00;94786.53;10304023;28;20004;-77
2024/03/14 23:27:43;;;;;;;;;;;;;;;7.26;100.00;94785.81;10303601;28;19913;-76
2024/03/14 23:32:45;;;;;;;;;;;;;;;7.32;100.00;94786.66;10316607;28;19917;-75
2024/03/14 23:37:46;;;;;;;;;;;;;;;7.13;100.00;94780.84;10301467;28;19918;-76
2024/03/14 23:42:46;;;;;;;;;;;;;;;7.24;100.00;94779.91;10303293;28;19913;-77
2024/03/14 23:47:48;;;;;;;;;;;;;;;7.16;100.00;94780.34;10303062;28;20010;-77
2024/03/14 23:52:49;;;;;;;;;;;;;;;7.18;100.00;94776.34;10302070;28;19917;-77
2024/03/14 23:57:50;;;;;;;;;;;;;;;7.12;100.00;94768.56;10303055;28;19916;-75
